sensor_id;sensor_type;location;lat;lon;timestamp;P1;durP1;ratioP1;P2;durP2;ratioP2
6376;SDS011;3221;48.858;10.128;2022-08-11T00:01:35;12.20;;;7.83;;
6376;SDS011;3221;48.858;10.128;2022-08-11T00:04:03;8.83;;;5.93;;
6376;SDS011;3221;48.858;10.128;2022-08-11T00:06:31;9.90;;;6.13;;
6376;SDS011;3221;48.858;10.128;2022-08-11T00:09:03;4.63;;;3.67;;
6376;SDS011;3221;48.858;10.128;2022-08-11T00:11:37;4.77;;;4.27;;
6376;SDS011;3221;48.858;10.128;2022-08-11T00:14:12;4.00;;;3.70;;
6376;SDS011;3221;48.858;10.128;2022-08-11T00:17:06;4.53;;;3.63;;
6376;SDS011;3221;48.858;10.128;2022-08-11T00:19:36;4.33;;;3.90;;
6376;SDS011;3221;48.858;10.128;2022-08-11T00:22:29;4.40;;;3.90;;
6376;SDS011;3221;48.858;10.128;2022-08-11T00:24:57;5.20;;;3.80;;
6376;SDS011;3221;48.858;10.128;2022-08-11T00:27:34;6.67;;;4.20;;
6376;SDS011;3221;48.858;10.128;2022-08-11T00:30:04;6.73;;;4.23;;
6376;SDS011;3221;48.858;10.128;2022-08-11T00:32:32;4.93;;;4.30;;
6376;SDS011;3221;48.858;10.128;2022-08-11T00:35:00;6.33;;;4.30;;
6376;SDS011;3221;48.858;10.128;2022-08-11T00:37:49;5.23;;;4.13;;
6376;SDS011;3221;48.858;10.128;2022-08-11T00:43:34;6.70;;;3.57;;
6376;SDS011;3221;48.858;10.128;2022-08-11T00:46:16;3.67;;;3.37;;
6376;SDS011;3221;48.858;10.128;2022-08-11T00:52:07;4.00;;;3.63;;
6376;SDS011;3221;48.858;10.128;2022-08-11T00:55:03;3.87;;;3.57;;
6376;SDS011;3221;48.858;10.128;2022-08-11T01:01:01;3.50;;;3.20;;
6376;SDS011;3221;48.858;10.128;2022-08-11T01:20:43;3.70;;;3.33;;
6376;SDS011;3221;48.858;10.128;2022-08-11T01:37:11;5.13;;;3.10;;
6376;SDS011;3221;48.858;10.128;2022-08-11T01:45:58;3.70;;;3.40;;
6376;SDS011;3221;48.858;10.128;2022-08-11T01:54:02;5.13;;;3.60;;
6376;SDS011;3221;48.858;10.128;2022-08-11T01:56:48;3.17;;;2.97;;
6376;SDS011;3221;48.858;10.128;2022-08-11T01:59:39;3.63;;;3.33;;
6376;SDS011;3221;48.858;10.128;2022-08-11T02:05:16;3.43;;;3.10;;
6376;SDS011;3221;48.858;10.128;2022-08-11T02:07:57;3.67;;;3.10;;
6376;SDS011;3221;48.858;10.128;2022-08-11T02:13:49;4.33;;;2.90;;
6376;SDS011;3221;48.858;10.128;2022-08-11T02:19:21;5.73;;;3.30;;
6376;SDS011;3221;48.858;10.128;2022-08-11T02:25:54;4.47;;;3.43;;
6376;SDS011;3221;48.858;10.128;2022-08-11T02:34:20;3.43;;;3.00;;
6376;SDS011;3221;48.858;10.128;2022-08-11T02:40:15;3.30;;;3.00;;
6376;SDS011;3221;48.858;10.128;2022-08-11T02:43:07;5.10;;;3.50;;
6376;SDS011;3221;48.858;10.128;2022-08-11T02:51:39;3.57;;;3.27;;
6376;SDS011;3221;48.858;10.128;2022-08-11T02:54:22;4.33;;;3.43;;
6376;SDS011;3221;48.858;10.128;2022-08-11T03:02:30;3.50;;;3.20;;
6376;SDS011;3221;48.858;10.128;2022-08-11T03:08:50;3.70;;;3.40;;
6376;SDS011;3221;48.858;10.128;2022-08-11T03:14:33;4.20;;;3.80;;
6376;SDS011;3221;48.858;10.128;2022-08-11T03:20:20;4.70;;;3.77;;
6376;SDS011;3221;48.858;10.128;2022-08-11T03:23:26;4.50;;;3.67;;
6376;SDS011;3221;48.858;10.128;2022-08-11T03:26:11;3.77;;;3.37;;
6376;SDS011;3221;48.858;10.128;2022-08-11T03:34:15;4.87;;;3.47;;
6376;SDS011;3221;48.858;10.128;2022-08-11T03:37:04;4.97;;;3.27;;
6376;SDS011;3221;48.858;10.128;2022-08-11T03:43:15;3.97;;;3.63;;
6376;SDS011;3221;48.858;10.128;2022-08-11T03:48:48;4.83;;;3.53;;
6376;SDS011;3221;48.858;10.128;2022-08-11T03:51:44;3.63;;;3.33;;
6376;SDS011;3221;48.858;10.128;2022-08-11T03:54:28;6.33;;;3.70;;
6376;SDS011;3221;48.858;10.128;2022-08-11T04:00:13;3.80;;;3.50;;
6376;SDS011;3221;48.858;10.128;2022-08-11T04:14:20;7.60;;;4.43;;
6376;SDS011;3221;48.858;10.128;2022-08-11T04:23:00;5.53;;;4.67;;
6376;SDS011;3221;48.858;10.128;2022-08-11T04:28:41;7.17;;;5.17;;
6376;SDS011;3221;48.858;10.128;2022-08-11T04:32:30;7.03;;;5.60;;
6376;SDS011;3221;48.858;10.128;2022-08-11T04:35:24;8.40;;;5.63;;
6376;SDS011;3221;48.858;10.128;2022-08-11T04:58:51;6.30;;;5.17;;
6376;SDS011;3221;48.858;10.128;2022-08-11T05:13:27;10.83;;;6.23;;
6376;SDS011;3221;48.858;10.128;2022-08-11T05:16:40;9.67;;;5.83;;
6376;SDS011;3221;48.858;10.128;2022-08-11T05:19:32;6.57;;;4.73;;
6376;SDS011;3221;48.858;10.128;2022-08-11T05:22:18;6.10;;;4.50;;
6376;SDS011;3221;48.858;10.128;2022-08-11T05:25:10;5.80;;;4.60;;
6376;SDS011;3221;48.858;10.128;2022-08-11T05:28:28;6.67;;;4.63;;
6376;SDS011;3221;48.858;10.128;2022-08-11T05:31:17;6.43;;;5.07;;
6376;SDS011;3221;48.858;10.128;2022-08-11T05:34:08;8.40;;;5.53;;
6376;SDS011;3221;48.858;10.128;2022-08-11T05:37:01;9.10;;;6.20;;
6376;SDS011;3221;48.858;10.128;2022-08-11T05:39:52;9.63;;;6.47;;
6376;SDS011;3221;48.858;10.128;2022-08-11T05:42:58;11.90;;;6.60;;
6376;SDS011;3221;48.858;10.128;2022-08-11T05:45:55;10.10;;;6.87;;
6376;SDS011;3221;48.858;10.128;2022-08-11T05:48:42;11.10;;;7.53;;
6376;SDS011;3221;48.858;10.128;2022-08-11T05:51:32;11.43;;;6.50;;
6376;SDS011;3221;48.858;10.128;2022-08-11T05:54:37;13.50;;;6.73;;
6376;SDS011;3221;48.858;10.128;2022-08-11T05:57:33;11.77;;;6.80;;
6376;SDS011;3221;48.858;10.128;2022-08-11T06:00:17;11.30;;;6.40;;
6376;SDS011;3221;48.858;10.128;2022-08-11T06:02:45;13.40;;;7.87;;
6376;SDS011;3221;48.858;10.128;2022-08-11T06:05:29;12.23;;;7.77;;
6376;SDS011;3221;48.858;10.128;2022-08-11T06:08:09;13.40;;;7.43;;
6376;SDS011;3221;48.858;10.128;2022-08-11T06:10:38;13.30;;;8.30;;
6376;SDS011;3221;48.858;10.128;2022-08-11T06:13:08;17.83;;;9.67;;
6376;SDS011;3221;48.858;10.128;2022-08-11T06:15:43;15.77;;;9.50;;
6376;SDS011;3221;48.858;10.128;2022-08-11T06:18:14;20.70;;;10.33;;
6376;SDS011;3221;48.858;10.128;2022-08-11T06:20:52;13.17;;;9.10;;
6376;SDS011;3221;48.858;10.128;2022-08-11T06:23:21;10.43;;;7.23;;
6376;SDS011;3221;48.858;10.128;2022-08-11T06:25:51;7.43;;;6.07;;
6376;SDS011;3221;48.858;10.128;2022-08-11T06:28:30;7.10;;;5.43;;
6376;SDS011;3221;48.858;10.128;2022-08-11T06:30:58;8.30;;;5.23;;
6376;SDS011;3221;48.858;10.128;2022-08-11T06:33:36;5.63;;;4.17;;
6376;SDS011;3221;48.858;10.128;2022-08-11T06:42:57;4.53;;;4.03;;
6376;SDS011;3221;48.858;10.128;2022-08-11T06:45:17;5.73;;;4.33;;
6376;SDS011;3221;48.858;10.128;2022-08-11T06:48:16;8.47;;;4.10;;
6376;SDS011;3221;48.858;10.128;2022-08-11T06:50:50;4.40;;;3.90;;
6376;SDS011;3221;48.858;10.128;2022-08-11T06:53:42;5.27;;;3.97;;
6376;SDS011;3221;48.858;10.128;2022-08-11T06:56:38;4.67;;;4.20;;
6376;SDS011;3221;48.858;10.128;2022-08-11T06:59:46;4.73;;;3.77;;
6376;SDS011;3221;48.858;10.128;2022-08-11T07:02:33;4.70;;;4.13;;
6376;SDS011;3221;48.858;10.128;2022-08-11T07:05:53;4.97;;;4.10;;
6376;SDS011;3221;48.858;10.128;2022-08-11T07:14:33;7.20;;;3.83;;
6376;SDS011;3221;48.858;10.128;2022-08-11T07:17:26;7.50;;;3.87;;
6376;SDS011;3221;48.858;10.128;2022-08-11T07:19:57;5.43;;;3.70;;
6376;SDS011;3221;48.858;10.128;2022-08-11T07:22:48;4.00;;;3.60;;
6376;SDS011;3221;48.858;10.128;2022-08-11T07:25:49;5.30;;;3.63;;
6376;SDS011;3221;48.858;10.128;2022-08-11T07:28:39;7.40;;;4.10;;
6376;SDS011;3221;48.858;10.128;2022-08-11T07:31:31;5.27;;;3.77;;
6376;SDS011;3221;48.858;10.128;2022-08-11T07:34:11;4.10;;;3.40;;
6376;SDS011;3221;48.858;10.128;2022-08-11T07:36:45;5.77;;;3.80;;
6376;SDS011;3221;48.858;10.128;2022-08-11T07:39:19;6.13;;;3.70;;
6376;SDS011;3221;48.858;10.128;2022-08-11T07:41:48;5.57;;;3.80;;
6376;SDS011;3221;48.858;10.128;2022-08-11T07:44:17;4.73;;;3.57;;
6376;SDS011;3221;48.858;10.128;2022-08-11T07:46:46;6.47;;;3.83;;
6376;SDS011;3221;48.858;10.128;2022-08-11T07:49:36;4.73;;;3.70;;
6376;SDS011;3221;48.858;10.128;2022-08-11T07:52:24;4.07;;;3.67;;
6376;SDS011;3221;48.858;10.128;2022-08-11T07:54:57;6.53;;;3.60;;
6376;SDS011;3221;48.858;10.128;2022-08-11T07:57:35;5.00;;;3.63;;
6376;SDS011;3221;48.858;10.128;2022-08-11T08:00:44;9.33;;;4.37;;
6376;SDS011;3221;48.858;10.128;2022-08-11T08:03:48;4.33;;;3.47;;
6376;SDS011;3221;48.858;10.128;2022-08-11T08:06:34;3.47;;;3.17;;
6376;SDS011;3221;48.858;10.128;2022-08-11T08:09:22;5.43;;;3.60;;
6376;SDS011;3221;48.858;10.128;2022-08-11T08:12:09;9.60;;;3.70;;
6376;SDS011;3221;48.858;10.128;2022-08-11T08:14:56;4.77;;;3.67;;
6376;SDS011;3221;48.858;10.128;2022-08-11T08:17:42;4.67;;;3.50;;
6376;SDS011;3221;48.858;10.128;2022-08-11T08:20:46;10.37;;;3.90;;
6376;SDS011;3221;48.858;10.128;2022-08-11T08:23:18;4.03;;;3.47;;
6376;SDS011;3221;48.858;10.128;2022-08-11T08:25:59;4.43;;;3.37;;
6376;SDS011;3221;48.858;10.128;2022-08-11T08:28:28;3.83;;;3.00;;
6376;SDS011;3221;48.858;10.128;2022-08-11T08:30:58;4.03;;;3.63;;
6376;SDS011;3221;48.858;10.128;2022-08-11T08:33:27;3.60;;;3.30;;
6376;SDS011;3221;48.858;10.128;2022-08-11T08:35:56;5.40;;;3.60;;
6376;SDS011;3221;48.858;10.128;2022-08-11T08:38:40;3.63;;;3.33;;
6376;SDS011;3221;48.858;10.128;2022-08-11T08:41:21;3.97;;;3.07;;
6376;SDS011;3221;48.858;10.128;2022-08-11T08:43:51;4.53;;;3.20;;
6376;SDS011;3221;48.858;10.128;2022-08-11T08:46:24;4.27;;;3.37;;
6376;SDS011;3221;48.858;10.128;2022-08-11T08:48:59;3.63;;;3.20;;
6376;SDS011;3221;48.858;10.128;2022-08-11T08:51:27;5.67;;;3.30;;
6376;SDS011;3221;48.858;10.128;2022-08-11T08:54:54;5.40;;;3.57;;
6376;SDS011;3221;48.858;10.128;2022-08-11T08:57:15;21.63;;;3.23;;
6376;SDS011;3221;48.858;10.128;2022-08-11T08:59:44;5.40;;;3.30;;
6376;SDS011;3221;48.858;10.128;2022-08-11T09:02:17;4.77;;;3.00;;
6376;SDS011;3221;48.858;10.128;2022-08-11T09:05:00;5.30;;;2.90;;
6376;SDS011;3221;48.858;10.128;2022-08-11T09:07:29;7.27;;;3.00;;
6376;SDS011;3221;48.858;10.128;2022-08-11T09:10:05;3.50;;;3.00;;
6376;SDS011;3221;48.858;10.128;2022-08-11T09:12:37;3.50;;;2.77;;
6376;SDS011;3221;48.858;10.128;2022-08-11T09:15:08;3.30;;;3.00;;
6376;SDS011;3221;48.858;10.128;2022-08-11T09:17:38;2.80;;;2.60;;
6376;SDS011;3221;48.858;10.128;2022-08-11T09:20:17;5.47;;;2.90;;
6376;SDS011;3221;48.858;10.128;2022-08-11T09:22:47;4.23;;;2.70;;
6376;SDS011;3221;48.858;10.128;2022-08-11T09:25:55;3.57;;;2.80;;
6376;SDS011;3221;48.858;10.128;2022-08-11T09:28:44;5.10;;;2.70;;
6376;SDS011;3221;48.858;10.128;2022-08-11T09:31:12;3.10;;;2.70;;
6376;SDS011;3221;48.858;10.128;2022-08-11T09:33:40;5.90;;;2.70;;
6376;SDS011;3221;48.858;10.128;2022-08-11T09:36:10;2.80;;;2.60;;
6376;SDS011;3221;48.858;10.128;2022-08-11T09:38:57;2.80;;;2.60;;
6376;SDS011;3221;48.858;10.128;2022-08-11T09:41:44;6.53;;;3.03;;
6376;SDS011;3221;48.858;10.128;2022-08-11T09:44:27;4.30;;;2.70;;
6376;SDS011;3221;48.858;10.128;2022-08-11T09:47:19;3.10;;;2.60;;
6376;SDS011;3221;48.858;10.128;2022-08-11T09:49:52;4.07;;;2.70;;
6376;SDS011;3221;48.858;10.128;2022-08-11T09:52:25;3.38;;;2.70;;
6376;SDS011;3221;48.858;10.128;2022-08-11T09:55:01;3.35;;;2.92;;
6376;SDS011;3221;48.858;10.128;2022-08-11T09:57:31;3.40;;;2.47;;
6376;SDS011;3221;48.858;10.128;2022-08-11T10:00:16;4.82;;;2.40;;
6376;SDS011;3221;48.858;10.128;2022-08-11T10:02:45;3.20;;;2.90;;
6376;SDS011;3221;48.858;10.128;2022-08-11T10:05:16;4.63;;;2.67;;
6376;SDS011;3221;48.858;10.128;2022-08-11T10:08:17;3.50;;;2.60;;
6376;SDS011;3221;48.858;10.128;2022-08-11T10:10:45;4.07;;;2.67;;
6376;SDS011;3221;48.858;10.128;2022-08-11T10:13:15;2.47;;;1.95;;
6376;SDS011;3221;48.858;10.128;2022-08-11T10:16:05;2.85;;;2.50;;
6376;SDS011;3221;48.858;10.128;2022-08-11T10:18:42;4.97;;;2.33;;
6376;SDS011;3221;48.858;10.128;2022-08-11T10:21:29;2.35;;;2.20;;
6376;SDS011;3221;48.858;10.128;2022-08-11T10:24:02;3.30;;;2.07;;
6376;SDS011;3221;48.858;10.128;2022-08-11T10:26:52;3.17;;;2.80;;
6376;SDS011;3221;48.858;10.128;2022-08-11T10:29:22;4.45;;;2.45;;
6376;SDS011;3221;48.858;10.128;2022-08-11T10:32:09;3.67;;;2.38;;
6376;SDS011;3221;48.858;10.128;2022-08-11T10:34:58;3.17;;;2.20;;
6376;SDS011;3221;48.858;10.128;2022-08-11T10:37:27;3.03;;;2.30;;
6376;SDS011;3221;48.858;10.128;2022-08-11T10:40:21;2.75;;;2.50;;
6376;SDS011;3221;48.858;10.128;2022-08-11T10:42:58;2.38;;;2.20;;
6376;SDS011;3221;48.858;10.128;2022-08-11T10:45:36;2.42;;;2.15;;
6376;SDS011;3221;48.858;10.128;2022-08-11T10:48:31;3.40;;;2.15;;
6376;SDS011;3221;48.858;10.128;2022-08-11T10:51:03;3.33;;;2.15;;
6376;SDS011;3221;48.858;10.128;2022-08-11T10:53:42;2.50;;;2.20;;
6376;SDS011;3221;48.858;10.128;2022-08-11T10:56:28;2.70;;;2.20;;
6376;SDS011;3221;48.858;10.128;2022-08-11T10:59:16;2.75;;;2.55;;
6376;SDS011;3221;48.858;10.128;2022-08-11T11:01:44;6.38;;;2.67;;
6376;SDS011;3221;48.858;10.128;2022-08-11T11:04:15;3.05;;;2.10;;
6376;SDS011;3221;48.858;10.128;2022-08-11T11:09:33;2.35;;;2.22;;
6376;SDS011;3221;48.858;10.128;2022-08-11T11:12:10;3.38;;;2.30;;
6376;SDS011;3221;48.858;10.128;2022-08-11T11:15:00;6.25;;;2.40;;
6376;SDS011;3221;48.858;10.128;2022-08-11T11:17:50;2.50;;;2.13;;
6376;SDS011;3221;48.858;10.128;2022-08-11T11:34:00;2.30;;;2.13;;
6376;SDS011;3221;48.858;10.128;2022-08-11T11:36:55;2.55;;;2.15;;
6376;SDS011;3221;48.858;10.128;2022-08-11T11:39:24;3.95;;;2.40;;
6376;SDS011;3221;48.858;10.128;2022-08-11T11:41:54;2.17;;;2.00;;
6376;SDS011;3221;48.858;10.128;2022-08-11T11:44:27;6.15;;;2.20;;
6376;SDS011;3221;48.858;10.128;2022-08-11T11:46:55;2.72;;;2.15;;
6376;SDS011;3221;48.858;10.128;2022-08-11T11:49:24;3.08;;;1.92;;
6376;SDS011;3221;48.858;10.128;2022-08-11T11:51:54;3.00;;;2.28;;
6376;SDS011;3221;48.858;10.128;2022-08-11T11:54:30;3.65;;;2.10;;
6376;SDS011;3221;48.858;10.128;2022-08-11T11:57:02;2.53;;;2.13;;
6376;SDS011;3221;48.858;10.128;2022-08-11T11:59:48;2.47;;;2.28;;
6376;SDS011;3221;48.858;10.128;2022-08-11T12:02:35;4.88;;;2.20;;
6376;SDS011;3221;48.858;10.128;2022-08-11T12:05:06;2.40;;;2.20;;
6376;SDS011;3221;48.858;10.128;2022-08-11T12:07:35;3.88;;;2.00;;
6376;SDS011;3221;48.858;10.128;2022-08-11T12:10:38;2.38;;;2.17;;
6376;SDS011;3221;48.858;10.128;2022-08-11T12:13:10;2.53;;;2.33;;
6376;SDS011;3221;48.858;10.128;2022-08-11T12:16:17;2.60;;;2.40;;
6376;SDS011;3221;48.858;10.128;2022-08-11T12:19:02;2.80;;;2.28;;
6376;SDS011;3221;48.858;10.128;2022-08-11T12:21:32;3.63;;;2.03;;
6376;SDS011;3221;48.858;10.128;2022-08-11T12:24:01;6.57;;;2.10;;
6376;SDS011;3221;48.858;10.128;2022-08-11T12:26:54;3.47;;;2.10;;
6376;SDS011;3221;48.858;10.128;2022-08-11T12:29:44;2.72;;;2.00;;
6376;SDS011;3221;48.858;10.128;2022-08-11T12:32:20;2.10;;;1.90;;
6376;SDS011;3221;48.858;10.128;2022-08-11T12:34:49;3.10;;;2.10;;
6376;SDS011;3221;48.858;10.128;2022-08-11T12:37:19;2.42;;;2.20;;
6376;SDS011;3221;48.858;10.128;2022-08-11T12:39:49;2.42;;;2.00;;
6376;SDS011;3221;48.858;10.128;2022-08-11T12:42:58;5.97;;;2.25;;
6376;SDS011;3221;48.858;10.128;2022-08-11T12:46:05;4.88;;;2.30;;
6376;SDS011;3221;48.858;10.128;2022-08-11T12:48:35;2.25;;;2.05;;
6376;SDS011;3221;48.858;10.128;2022-08-11T12:51:30;2.08;;;1.88;;
6376;SDS011;3221;48.858;10.128;2022-08-11T12:58:27;5.63;;;2.60;;
6376;SDS011;3221;48.858;10.128;2022-08-11T13:00:55;3.30;;;2.70;;
6376;SDS011;3221;48.858;10.128;2022-08-11T13:03:40;5.93;;;2.45;;
6376;SDS011;3221;48.858;10.128;2022-08-11T13:06:26;2.50;;;2.30;;
6376;SDS011;3221;48.858;10.128;2022-08-11T13:08:54;3.25;;;2.47;;
6376;SDS011;3221;48.858;10.128;2022-08-11T13:11:26;2.75;;;2.45;;
6376;SDS011;3221;48.858;10.128;2022-08-11T13:14:22;6.65;;;3.55;;
6376;SDS011;3221;48.858;10.128;2022-08-11T13:16:51;6.43;;;2.65;;
6376;SDS011;3221;48.858;10.128;2022-08-11T13:19:37;3.97;;;2.55;;
6376;SDS011;3221;48.858;10.128;2022-08-11T13:22:17;2.45;;;2.20;;
6376;SDS011;3221;48.858;10.128;2022-08-11T13:24:45;3.58;;;2.30;;
6376;SDS011;3221;48.858;10.128;2022-08-11T13:27:15;7.30;;;3.80;;
6376;SDS011;3221;48.858;10.128;2022-08-11T13:29:44;9.88;;;6.20;;
6376;SDS011;3221;48.858;10.128;2022-08-11T13:32:12;4.47;;;2.85;;
6376;SDS011;3221;48.858;10.128;2022-08-11T13:34:41;3.85;;;2.47;;
6376;SDS011;3221;48.858;10.128;2022-08-11T13:37:09;3.50;;;2.40;;
6376;SDS011;3221;48.858;10.128;2022-08-11T13:39:40;4.93;;;4.47;;
6376;SDS011;3221;48.858;10.128;2022-08-11T13:42:13;3.70;;;2.80;;
6376;SDS011;3221;48.858;10.128;2022-08-11T13:44:45;4.30;;;2.40;;
6376;SDS011;3221;48.858;10.128;2022-08-11T13:47:13;4.50;;;2.20;;
6376;SDS011;3221;48.858;10.128;2022-08-11T13:49:41;4.70;;;2.40;;
6376;SDS011;3221;48.858;10.128;2022-08-11T13:52:10;5.15;;;2.10;;
6376;SDS011;3221;48.858;10.128;2022-08-11T13:54:40;2.80;;;2.20;;
6376;SDS011;3221;48.858;10.128;2022-08-11T13:57:10;2.45;;;2.25;;
6376;SDS011;3221;48.858;10.128;2022-08-11T13:59:58;4.35;;;2.20;;
6376;SDS011;3221;48.858;10.128;2022-08-11T14:02:53;2.58;;;2.20;;
6376;SDS011;3221;48.858;10.128;2022-08-11T14:05:24;2.90;;;2.30;;
6376;SDS011;3221;48.858;10.128;2022-08-11T14:08:03;3.03;;;2.30;;
6376;SDS011;3221;48.858;10.128;2022-08-11T14:10:58;3.90;;;2.15;;
6376;SDS011;3221;48.858;10.128;2022-08-11T14:14:06;5.05;;;2.40;;
6376;SDS011;3221;48.858;10.128;2022-08-11T14:16:40;5.10;;;2.15;;
6376;SDS011;3221;48.858;10.128;2022-08-11T14:19:11;3.28;;;2.10;;
6376;SDS011;3221;48.858;10.128;2022-08-11T14:21:40;4.10;;;2.30;;
6376;SDS011;3221;48.858;10.128;2022-08-11T14:24:34;3.65;;;2.30;;
6376;SDS011;3221;48.858;10.128;2022-08-11T14:27:04;2.50;;;2.30;;
6376;SDS011;3221;48.858;10.128;2022-08-11T14:29:57;8.93;;;2.70;;
6376;SDS011;3221;48.858;10.128;2022-08-11T14:32:24;9.70;;;2.75;;
6376;SDS011;3221;48.858;10.128;2022-08-11T14:34:53;176.98;;;16.40;;
6376;SDS011;3221;48.858;10.128;2022-08-11T14:37:21;7.07;;;2.80;;
6376;SDS011;3221;48.858;10.128;2022-08-11T14:39:55;5.28;;;2.80;;
6376;SDS011;3221;48.858;10.128;2022-08-11T14:42:28;29.50;;;5.70;;
6376;SDS011;3221;48.858;10.128;2022-08-11T14:45:15;4.03;;;2.30;;
6376;SDS011;3221;48.858;10.128;2022-08-11T14:48:21;4.47;;;2.33;;
6376;SDS011;3221;48.858;10.128;2022-08-11T14:50:48;5.80;;;2.50;;
6376;SDS011;3221;48.858;10.128;2022-08-11T14:53:15;4.90;;;2.20;;
6376;SDS011;3221;48.858;10.128;2022-08-11T14:55:44;4.20;;;2.30;;
6376;SDS011;3221;48.858;10.128;2022-08-11T14:58:29;2.67;;;2.10;;
6376;SDS011;3221;48.858;10.128;2022-08-11T15:00:59;2.17;;;1.98;;
6376;SDS011;3221;48.858;10.128;2022-08-11T15:03:28;1.98;;;1.73;;
6376;SDS011;3221;48.858;10.128;2022-08-11T15:05:59;2.85;;;2.15;;
6376;SDS011;3221;48.858;10.128;2022-08-11T15:08:28;2.75;;;2.00;;
6376;SDS011;3221;48.858;10.128;2022-08-11T15:11:17;2.50;;;2.30;;
6376;SDS011;3221;48.858;10.128;2022-08-11T15:14:05;3.25;;;1.85;;
6376;SDS011;3221;48.858;10.128;2022-08-11T15:16:35;2.42;;;2.10;;
6376;SDS011;3221;48.858;10.128;2022-08-11T15:19:24;9.98;;;4.82;;
6376;SDS011;3221;48.858;10.128;2022-08-11T15:21:53;4.82;;;2.58;;
6376;SDS011;3221;48.858;10.128;2022-08-11T15:24:39;2.20;;;2.08;;
6376;SDS011;3221;48.858;10.128;2022-08-11T15:27:13;12.80;;;6.30;;
6376;SDS011;3221;48.858;10.128;2022-08-11T15:30:04;18.90;;;3.08;;
6376;SDS011;3221;48.858;10.128;2022-08-11T15:33:03;4.85;;;2.53;;
6376;SDS011;3221;48.858;10.128;2022-08-11T15:35:52;5.38;;;2.75;;
6376;SDS011;3221;48.858;10.128;2022-08-11T15:38:41;5.22;;;2.22;;
6376;SDS011;3221;48.858;10.128;2022-08-11T15:41:14;3.30;;;2.42;;
6376;SDS011;3221;48.858;10.128;2022-08-11T15:44:01;6.32;;;2.13;;
6376;SDS011;3221;48.858;10.128;2022-08-11T15:47:12;4.85;;;2.20;;
6376;SDS011;3221;48.858;10.128;2022-08-11T15:49:41;3.83;;;2.45;;
6376;SDS011;3221;48.858;10.128;2022-08-11T15:52:32;2.80;;;2.50;;
6376;SDS011;3221;48.858;10.128;2022-08-11T15:55:05;2.38;;;2.15;;
6376;SDS011;3221;48.858;10.128;2022-08-11T15:57:34;3.78;;;2.17;;
6376;SDS011;3221;48.858;10.128;2022-08-11T16:00:21;3.95;;;2.25;;
6376;SDS011;3221;48.858;10.128;2022-08-11T16:03:08;4.82;;;2.20;;
6376;SDS011;3221;48.858;10.128;2022-08-11T16:06:15;2.65;;;2.35;;
6376;SDS011;3221;48.858;10.128;2022-08-11T16:08:44;2.00;;;1.90;;
6376;SDS011;3221;48.858;10.128;2022-08-11T16:11:13;3.25;;;2.28;;
6376;SDS011;3221;48.858;10.128;2022-08-11T16:13:41;2.38;;;1.95;;
6376;SDS011;3221;48.858;10.128;2022-08-11T16:16:09;2.00;;;1.75;;
6376;SDS011;3221;48.858;10.128;2022-08-11T16:21:20;2.40;;;2.20;;
6376;SDS011;3221;48.858;10.128;2022-08-11T16:24:00;4.53;;;2.17;;
6376;SDS011;3221;48.858;10.128;2022-08-11T16:26:31;3.60;;;2.20;;
6376;SDS011;3221;48.858;10.128;2022-08-11T16:29:19;2.30;;;2.05;;
6376;SDS011;3221;48.858;10.128;2022-08-11T16:31:48;2.50;;;2.30;;
6376;SDS011;3221;48.858;10.128;2022-08-11T16:34:36;3.10;;;2.30;;
6376;SDS011;3221;48.858;10.128;2022-08-11T16:37:23;2.50;;;2.30;;
6376;SDS011;3221;48.858;10.128;2022-08-11T16:40:10;4.15;;;3.13;;
6376;SDS011;3221;48.858;10.128;2022-08-11T16:42:37;3.05;;;2.30;;
6376;SDS011;3221;48.858;10.128;2022-08-11T16:45:36;5.68;;;4.60;;
6376;SDS011;3221;48.858;10.128;2022-08-11T16:48:23;6.28;;;2.63;;
6376;SDS011;3221;48.858;10.128;2022-08-11T16:51:04;8.00;;;5.53;;
6376;SDS011;3221;48.858;10.128;2022-08-11T16:53:32;5.25;;;2.35;;
6376;SDS011;3221;48.858;10.128;2022-08-11T16:56:20;5.82;;;2.50;;
6376;SDS011;3221;48.858;10.128;2022-08-11T16:58:53;4.13;;;2.50;;
6376;SDS011;3221;48.858;10.128;2022-08-11T17:01:42;5.75;;;2.55;;
6376;SDS011;3221;48.858;10.128;2022-08-11T17:07:08;6.10;;;2.45;;
6376;SDS011;3221;48.858;10.128;2022-08-11T17:10:43;4.47;;;2.25;;
6376;SDS011;3221;48.858;10.128;2022-08-11T17:13:42;4.57;;;2.40;;
6376;SDS011;3221;48.858;10.128;2022-08-11T17:16:15;4.00;;;2.40;;
6376;SDS011;3221;48.858;10.128;2022-08-11T17:21:24;2.75;;;2.53;;
6376;SDS011;3221;48.858;10.128;2022-08-11T17:24:28;2.25;;;2.05;;
6376;SDS011;3221;48.858;10.128;2022-08-11T17:26:57;3.42;;;1.98;;
6376;SDS011;3221;48.858;10.128;2022-08-11T17:32:19;2.50;;;2.30;;
6376;SDS011;3221;48.858;10.128;2022-08-11T17:35:27;3.85;;;2.00;;
6376;SDS011;3221;48.858;10.128;2022-08-11T17:40:34;3.17;;;2.30;;
6376;SDS011;3221;48.858;10.128;2022-08-11T17:43:07;2.22;;;2.05;;
6376;SDS011;3221;48.858;10.128;2022-08-11T17:45:54;2.50;;;2.30;;
6376;SDS011;3221;48.858;10.128;2022-08-11T17:48:41;2.55;;;2.22;;
6376;SDS011;3221;48.858;10.128;2022-08-11T17:51:13;4.65;;;2.28;;
6376;SDS011;3221;48.858;10.128;2022-08-11T17:54:03;2.72;;;2.00;;
6376;SDS011;3221;48.858;10.128;2022-08-11T17:56:51;5.03;;;2.10;;
6376;SDS011;3221;48.858;10.128;2022-08-11T17:59:47;4.80;;;2.10;;
6376;SDS011;3221;48.858;10.128;2022-08-11T18:02:21;2.47;;;2.20;;
6376;SDS011;3221;48.858;10.128;2022-08-11T18:05:15;2.17;;;2.00;;
6376;SDS011;3221;48.858;10.128;2022-08-11T18:07:47;5.80;;;2.20;;
6376;SDS011;3221;48.858;10.128;2022-08-11T18:10:35;2.53;;;2.33;;
6376;SDS011;3221;48.858;10.128;2022-08-11T18:13:22;2.67;;;2.20;;
6376;SDS011;3221;48.858;10.128;2022-08-11T18:16:10;5.38;;;2.20;;
6376;SDS011;3221;48.858;10.128;2022-08-11T18:18:56;3.30;;;2.45;;
6376;SDS011;3221;48.858;10.128;2022-08-11T18:21:43;3.40;;;2.22;;
6376;SDS011;3221;48.858;10.128;2022-08-11T18:24:46;3.78;;;2.10;;
6376;SDS011;3221;48.858;10.128;2022-08-11T18:27:35;2.75;;;2.13;;
6376;SDS011;3221;48.858;10.128;2022-08-11T18:30:24;2.83;;;2.20;;
6376;SDS011;3221;48.858;10.128;2022-08-11T18:33:10;2.10;;;1.95;;
6376;SDS011;3221;48.858;10.128;2022-08-11T18:36:20;5.28;;;2.28;;
6376;SDS011;3221;48.858;10.128;2022-08-11T18:39:08;4.60;;;2.20;;
6376;SDS011;3221;48.858;10.128;2022-08-11T18:41:57;5.47;;;2.80;;
6376;SDS011;3221;48.858;10.128;2022-08-11T18:44:56;2.75;;;2.30;;
6376;SDS011;3221;48.858;10.128;2022-08-11T18:47:49;4.45;;;2.30;;
6376;SDS011;3221;48.858;10.128;2022-08-11T18:50:36;4.35;;;2.40;;
6376;SDS011;3221;48.858;10.128;2022-08-11T18:53:46;3.47;;;2.40;;
6376;SDS011;3221;48.858;10.128;2022-08-11T18:56:36;2.33;;;2.13;;
6376;SDS011;3221;48.858;10.128;2022-08-11T18:59:23;2.77;;;2.30;;
6376;SDS011;3221;48.858;10.128;2022-08-11T19:02:12;2.90;;;2.27;;
6376;SDS011;3221;48.858;10.128;2022-08-11T19:05:14;6.37;;;2.40;;
6376;SDS011;3221;48.858;10.128;2022-08-11T19:08:27;2.50;;;2.30;;
6376;SDS011;3221;48.858;10.128;2022-08-11T19:11:15;2.47;;;2.20;;
6376;SDS011;3221;48.858;10.128;2022-08-11T19:14:09;4.17;;;2.30;;
6376;SDS011;3221;48.858;10.128;2022-08-11T19:16:57;2.30;;;2.03;;
6376;SDS011;3221;48.858;10.128;2022-08-11T19:20:05;4.07;;;2.00;;
6376;SDS011;3221;48.858;10.128;2022-08-11T19:22:55;2.43;;;2.23;;
6376;SDS011;3221;48.858;10.128;2022-08-11T19:25:42;2.00;;;1.80;;
6376;SDS011;3221;48.858;10.128;2022-08-11T19:28:28;4.37;;;2.50;;
6376;SDS011;3221;48.858;10.128;2022-08-11T19:31:15;2.70;;;2.20;;
6376;SDS011;3221;48.858;10.128;2022-08-11T19:34:07;3.17;;;2.30;;
6376;SDS011;3221;48.858;10.128;2022-08-11T19:36:54;4.23;;;2.10;;
6376;SDS011;3221;48.858;10.128;2022-08-11T19:39:40;3.27;;;2.07;;
6376;SDS011;3221;48.858;10.128;2022-08-11T19:42:26;2.40;;;2.20;;
6376;SDS011;3221;48.858;10.128;2022-08-11T19:45:13;2.60;;;2.13;;
6376;SDS011;3221;48.858;10.128;2022-08-11T19:48:00;3.83;;;2.10;;
6376;SDS011;3221;48.858;10.128;2022-08-11T19:50:58;3.10;;;2.40;;
6376;SDS011;3221;48.858;10.128;2022-08-11T19:53:45;2.33;;;2.10;;
6376;SDS011;3221;48.858;10.128;2022-08-11T19:56:32;4.47;;;2.27;;
6376;SDS011;3221;48.858;10.128;2022-08-11T19:59:20;2.40;;;2.20;;
6376;SDS011;3221;48.858;10.128;2022-08-11T20:02:07;2.30;;;2.10;;